Time;durP1;ratioP1;P1;durP2;ratioP2;P2;SDS_P1;SDS_P2;PMS_P1;PMS_P2;Temp;Humidity;BMP_temperature;BMP_pressure;BME280_temperature;BME280_humidity;BME280_pressure;Samples;Min_cycle;Max_cycle;Signal;HPM_P1;HPM_P2
2021/01/12 00:02:10;;;;;;;3.50;3.13;;;19.50;44.70;;;;;;5003634;28;20088;-59
2021/01/12 00:04:35;;;;;;;3.70;3.05;;;19.50;44.70;;;;;;5004438;28;20038;-58
2021/01/12 00:07:01;;;;;;;5.10;2.97;;;19.50;44.80;;;;;;5003081;28;20492;-60
2021/01/12 00:09:26;;;;;;;3.80;3.15;;;19.50;44.70;;;;;;5004713;28;20029;-59
2021/01/12 00:11:53;;;;;;;3.38;2.80;;;19.50;44.70;;;;;;5004468;28;20034;-60
2021/01/12 00:14:33;;;;;;;4.22;2.85;;;19.50;44.60;;;;;;4994395;28;20050;-61
2021/01/12 00:17:06;;;;;;;5.18;2.75;;;19.50;44.60;;;;;;4984792;28;20571;-58
2021/01/12 00:19:32;;;;;;;4.32;3.28;;;19.50;44.70;;;;;;4984554;28;20038;-59
2021/01/12 00:21:58;;;;;;;3.92;2.92;;;19.50;44.70;;;;;;5004376;28;20042;-58
2021/01/12 00:24:24;;;;;;;3.22;2.92;;;19.50;44.60;;;;;;5004712;28;20400;-60
2021/01/12 00:26:50;;;;;;;3.63;2.80;;;19.50;44.60;;;;;;5001733;28;20055;-58
2021/01/12 00:29:15;;;;;;;2.75;2.40;;;19.50;44.60;;;;;;4984237;28;20038;-57
2021/01/12 00:31:41;;;;;;;4.43;2.95;;;19.40;44.60;;;;;;4984178;28;20031;-58
2021/01/12 00:34:07;;;;;;;3.22;2.80;;;19.50;44.60;;;;;;4984657;28;20054;-56
2021/01/12 00:36:42;;;;;;;4.55;2.97;;;19.50;44.60;;;;;;5003325;28;20566;-60
2021/01/12 00:39:07;;;;;;;4.47;2.97;;;19.40;44.60;;;;;;5004436;28;20061;-58
2021/01/12 00:41:34;;;;;;;3.15;2.65;;;19.40;44.50;;;;;;5002966;28;20483;-58
2021/01/12 00:43:59;;;;;;;4.18;2.97;;;19.40;44.40;;;;;;4986104;28;20113;-59
2021/01/12 00:46:25;;;;;;;3.28;2.65;;;19.40;44.50;;;;;;5002631;28;20556;-61
2021/01/12 00:48:50;;;;;;;3.15;2.85;;;19.40;44.60;;;;;;4971818;28;20129;-59
2021/01/12 00:51:16;;;;;;;4.25;2.95;;;19.40;44.50;;;;;;4988970;28;20045;-59
2021/01/12 00:53:41;;;;;;;2.97;2.50;;;19.40;44.50;;;;;;5002872;28;20137;-60
2021/01/12 00:56:11;;;;;;;3.97;3.00;;;19.40;44.50;;;;;;5002736;28;20489;-59
2021/01/12 00:58:37;;;;;;;3.20;2.63;;;19.40;44.50;;;;;;4998148;28;20389;-57
2021/01/12 01:01:02;;;;;;;3.30;3.00;;;19.30;44.40;;;;;;4983656;28;20137;-61
2021/01/12 01:03:28;;;;;;;3.05;2.58;;;19.30;44.50;;;;;;4984405;28;20696;-60
2021/01/12 01:05:53;;;;;;;3.78;3.15;;;19.30;44.60;;;;;;4983700;28;20135;-59
2021/01/12 01:08:19;;;;;;;3.45;3.15;;;19.30;44.50;;;;;;4983448;28;20034;-60
2021/01/12 01:10:44;;;;;;;3.42;2.65;;;19.30;44.60;;;;;;4983244;28;20403;-60
2021/01/12 01:13:10;;;;;;;3.50;2.97;;;19.30;44.50;;;;;;4983853;28;20046;-58
2021/01/12 01:15:35;;;;;;;2.80;2.58;;;19.30;44.60;;;;;;4983986;28;20169;-59
2021/01/12 01:18:01;;;;;;;3.80;2.97;;;19.20;44.50;;;;;;4983185;28;20451;-61
2021/01/12 01:20:26;;;;;;;3.28;2.88;;;19.20;44.50;;;;;;4983794;28;20189;-61
2021/01/12 01:22:52;;;;;;;4.30;3.08;;;19.20;44.60;;;;;;4983655;28;20799;-58
2021/01/12 01:25:17;;;;;;;3.65;2.97;;;19.20;44.60;;;;;;4983611;28;20046;-61
2021/01/12 01:27:43;;;;;;;5.10;3.15;;;19.20;44.60;;;;;;4983104;28;20045;-61
2021/01/12 01:30:09;;;;;;;3.72;2.42;;;19.20;44.60;;;;;;5008193;23;20184;-66
2021/01/12 01:32:34;;;;;;;4.90;2.90;;;19.20;44.60;;;;;;5004699;28;20034;-66
2021/01/12 01:35:00;;;;;;;3.17;2.85;;;19.20;44.60;;;;;;5005066;28;20397;-66
2021/01/12 01:37:25;;;;;;;3.00;2.70;;;19.20;44.70;;;;;;5004563;28;20101;-65
2021/01/12 01:39:51;;;;;;;2.90;2.60;;;19.20;44.60;;;;;;5005186;28;20032;-66
2021/01/12 01:42:16;;;;;;;2.90;2.53;;;19.20;44.70;;;;;;5004828;28;20960;-66
2021/01/12 01:44:42;;;;;;;2.63;2.42;;;19.20;44.70;;;;;;5005548;28;20042;-66
2021/01/12 01:47:07;;;;;;;3.53;2.42;;;19.10;44.60;;;;;;5027564;23;20052;-64
2021/01/12 01:49:33;;;;;;;4.82;2.90;;;19.20;44.60;;;;;;5005422;28;20484;-63
2021/01/12 01:51:58;;;;;;;3.42;2.70;;;19.20;45.00;;;;;;5005630;28;20030;-64
2021/01/12 01:54:24;;;;;;;2.95;2.72;;;19.10;44.70;;;;;;4988519;28;20029;-66
2021/01/12 01:56:49;;;;;;;3.20;2.63;;;19.20;44.70;;;;;;4985214;28;20026;-65
2021/01/12 01:59:15;;;;;;;3.30;3.00;;;19.10;44.60;;;;;;4986718;28;20035;-65
2021/01/12 02:01:40;;;;;;;2.72;2.53;;;19.10;44.70;;;;;;4986583;28;20022;-65
2021/01/12 02:04:28;;;;;;;3.22;2.35;;;19.10;44.70;;;;;;4969044;28;20661;-65
2021/01/12 02:06:54;;;;;;;3.35;2.90;;;19.10;44.70;;;;;;4985940;28;20058;-65
2021/01/12 02:09:30;;;;;;;2.75;2.47;;;19.10;44.70;;;;;;4969351;28;20513;-65
2021/01/12 02:11:59;;;;;;;3.03;2.72;;;19.10;44.70;;;;;;4969726;28;20027;-64
2021/01/12 02:14:26;;;;;;;2.63;2.30;;;19.00;44.70;;;;;;4985263;28;20547;-63
2021/01/12 02:16:52;;;;;;;3.17;2.70;;;19.00;44.70;;;;;;4968981;28;20080;-65
2021/01/12 02:19:19;;;;;;;3.05;2.75;;;19.00;44.80;;;;;;4969209;28;20030;-65
2021/01/12 02:21:47;;;;;;;3.17;2.47;;;19.00;44.80;;;;;;4969435;28;20047;-63
2021/01/12 02:24:12;;;;;;;3.05;2.47;;;18.90;44.80;;;;;;4969473;28;20030;-64
2021/01/12 02:26:38;;;;;;;3.13;2.75;;;18.90;44.80;;;;;;4971371;28;20034;-64
2021/01/12 02:29:03;;;;;;;3.20;2.90;;;18.90;44.90;;;;;;4973059;28;20130;-66
2021/01/12 02:31:30;;;;;;;3.50;2.42;;;18.90;44.90;;;;;;4989539;28;20049;-65
2021/01/12 02:33:55;;;;;;;3.30;3.00;;;18.80;44.90;;;;;;4989617;28;20026;-66
2021/01/12 02:36:22;;;;;;;2.95;2.53;;;18.80;44.90;;;;;;4972670;28;20026;-63
2021/01/12 02:38:48;;;;;;;3.78;2.53;;;18.70;44.90;;;;;;4973125;28;20045;-64
2021/01/12 02:41:14;;;;;;;3.28;2.65;;;18.70;45.00;;;;;;4972949;28;20069;-63
2021/01/12 02:43:41;;;;;;;3.58;2.47;;;18.70;45.00;;;;;;4990122;28;20030;-64
2021/01/12 02:46:07;;;;;;;2.90;2.60;;;18.60;44.90;;;;;;4991190;28;20026;-65
2021/01/12 02:48:32;;;;;;;2.95;2.50;;;18.60;45.00;;;;;;4989914;28;20026;-64
2021/01/12 02:50:57;;;;;;;2.78;2.50;;;18.60;45.00;;;;;;4990057;28;20037;-64
2021/01/12 02:53:23;;;;;;;3.08;2.50;;;18.50;45.00;;;;;;4989430;28;20065;-64
2021/01/12 02:55:49;;;;;;;3.03;2.47;;;18.50;45.00;;;;;;4989437;28;20727;-64
2021/01/12 02:58:14;;;;;;;2.70;2.33;;;18.50;45.10;;;;;;4989286;28;20057;-63
2021/01/12 03:00:39;;;;;;;2.95;2.33;;;18.50;45.10;;;;;;4989892;28;20037;-62
2021/01/12 03:03:05;;;;;;;2.78;2.45;;;18.50;45.10;;;;;;4989573;28;20034;-65
2021/01/12 03:05:30;;;;;;;2.63;2.42;;;18.50;45.10;;;;;;4989881;28;20106;-64
2021/01/12 03:07:56;;;;;;;3.03;2.47;;;18.40;45.00;;;;;;4989227;28;20018;-65
2021/01/12 03:10:22;;;;;;;3.10;2.80;;;18.40;45.00;;;;;;4989361;28;20080;-65
2021/01/12 03:12:47;;;;;;;3.00;2.70;;;18.40;45.00;;;;;;4989698;28;20022;-63
2021/01/12 03:15:13;;;;;;;2.33;2.13;;;18.40;45.00;;;;;;4989530;28;20019;-63
2021/01/12 03:17:38;;;;;;;2.80;2.25;;;18.30;45.00;;;;;;4988821;28;20030;-62
2021/01/12 03:20:05;;;;;;;3.65;2.55;;;18.30;45.10;;;;;;4989227;28;20031;-64
2021/01/12 03:22:30;;;;;;;2.45;2.25;;;18.30;45.10;;;;;;4988965;28;20544;-63
2021/01/12 03:24:55;;;;;;;2.72;2.08;;;18.30;45.10;;;;;;4989129;28;20038;-64
2021/01/12 03:27:21;;;;;;;2.72;2.53;;;18.40;45.20;;;;;;4988737;28;20049;-64
2021/01/12 03:29:46;;;;;;;2.45;2.25;;;18.40;45.10;;;;;;4989500;28;20463;-63
2021/01/12 03:32:12;;;;;;;2.35;2.03;;;18.40;45.10;;;;;;4988833;28;20424;-63
2021/01/12 03:34:37;;;;;;;2.65;2.45;;;18.50;45.20;;;;;;4981422;28;20030;-63
2021/01/12 03:37:03;;;;;;;2.38;2.13;;;18.50;45.10;;;;;;4987354;28;20076;-64
2021/01/12 03:39:28;;;;;;;3.75;1.95;;;18.60;45.00;;;;;;4988789;28;20400;-64
2021/01/12 03:41:54;;;;;;;4.30;2.30;;;18.70;45.00;;;;;;4988903;28;20543;-64
2021/01/12 03:44:19;;;;;;;2.95;2.30;;;18.70;45.60;;;;;;4988953;28;20041;-65
2021/01/12 03:46:45;;;;;;;2.40;2.20;;;18.80;44.80;;;;;;4988171;28;20081;-65
2021/01/12 03:49:10;;;;;;;2.60;2.25;;;18.90;44.80;;;;;;4970260;28;20026;-63
2021/01/12 03:51:36;;;;;;;2.67;2.17;;;18.90;44.70;;;;;;4980112;28;20026;-63
2021/01/12 03:54:01;;;;;;;3.33;2.00;;;19.00;44.70;;;;;;4987601;28;20509;-62
2021/01/12 03:56:27;;;;;;;4.03;2.30;;;19.00;44.60;;;;;;4987507;28;20049;-64
2021/01/12 03:58:53;;;;;;;2.50;2.25;;;19.10;44.60;;;;;;4970078;28;21939;-66
2021/01/12 04:01:18;;;;;;;2.25;2.05;;;19.20;44.50;;;;;;4987881;28;20022;-62
2021/01/12 04:03:44;;;;;;;2.30;2.10;;;19.20;44.40;;;;;;4970384;28;20657;-64
2021/01/12 04:06:14;;;;;;;2.33;2.05;;;19.30;44.30;;;;;;4987250;28;20030;-65
2021/01/12 04:08:44;;;;;;;2.08;1.88;;;19.30;44.30;;;;;;4979808;28;20081;-63
2021/01/12 04:11:13;;;;;;;2.22;2.03;;;19.40;44.20;;;;;;4969757;28;20503;-63
2021/01/12 04:13:39;;;;;;;2.08;1.88;;;19.50;44.20;;;;;;4980332;28;20081;-63
2021/01/12 04:16:05;;;;;;;2.13;1.92;;;19.50;44.80;;;;;;4986857;28;20392;-64
2021/01/12 04:18:30;;;;;;;2.70;2.08;;;19.60;44.10;;;;;;4987351;28;20034;-64
2021/01/12 04:20:56;;;;;;;2.42;2.22;;;19.60;44.00;;;;;;4987388;28;20492;-57
2021/01/12 04:23:22;;;;;;;3.05;2.42;;;19.60;44.00;;;;;;4987088;28;20065;-63
2021/01/12 04:25:47;;;;;;;2.42;2.20;;;19.70;43.90;;;;;;4987280;28;20412;-64
2021/01/12 04:28:13;;;;;;;2.88;2.05;;;19.70;43.90;;;;;;4986651;28;20085;-63
2021/01/12 04:30:38;;;;;;;3.08;1.98;;;19.70;43.80;;;;;;4987011;28;20022;-63
2021/01/12 04:33:04;;;;;;;2.38;1.92;;;19.70;43.70;;;;;;4986961;28;20524;-63
2021/01/12 04:35:29;;;;;;;4.40;2.05;;;19.70;43.70;;;;;;4987120;28;20126;-61
2021/01/12 04:37:55;;;;;;;2.03;1.83;;;19.70;43.70;;;;;;4986526;28;20027;-64
2021/01/12 04:40:20;;;;;;;2.17;1.90;;;19.70;43.70;;;;;;4986766;28;20030;-64
2021/01/12 04:42:46;;;;;;;1.88;1.73;;;19.70;43.70;;;;;;4986869;28;20030;-64
2021/01/12 04:45:11;;;;;;;2.42;2.08;;;19.60;43.60;;;;;;4986684;28;20060;-63
2021/01/12 04:47:37;;;;;;;3.00;2.40;;;19.60;43.60;;;;;;4969408;28;495170;-63
2021/01/12 04:50:03;;;;;;;3.05;2.30;;;19.60;43.50;;;;;;4987333;28;20031;-63
2021/01/12 04:52:29;;;;;;;2.45;1.90;;;19.60;43.50;;;;;;4987422;28;20508;-63
2021/01/12 04:54:54;;;;;;;2.40;2.20;;;19.60;43.50;;;;;;4987258;28;20061;-63
2021/01/12 04:57:20;;;;;;;2.58;2.10;;;19.60;43.50;;;;;;4987111;28;20034;-62
2021/01/12 04:59:45;;;;;;;2.63;1.92;;;19.60;43.50;;;;;;4987433;28;20101;-63
2021/01/12 05:02:13;;;;;;;2.85;2.25;;;19.50;43.40;;;;;;4987315;28;20150;-65
2021/01/12 05:04:42;;;;;;;2.13;1.92;;;19.50;43.50;;;;;;4963675;28;20027;-65
2021/01/12 05:07:08;;;;;;;2.47;2.22;;;19.50;43.40;;;;;;4969768;28;20030;-64
2021/01/12 05:09:34;;;;;;;4.57;2.25;;;19.50;43.40;;;;;;4969533;28;20031;-63
2021/01/12 05:11:59;;;;;;;2.63;1.95;;;19.50;43.40;;;;;;4987538;28;20119;-65
2021/01/12 05:14:25;;;;;;;2.35;2.03;;;19.40;43.40;;;;;;4970016;28;20049;-65
2021/01/12 05:16:55;;;;;;;2.72;2.53;;;19.40;43.30;;;;;;4969640;28;20522;-64
2021/01/12 05:19:22;;;;;;;2.13;1.95;;;19.40;43.30;;;;;;4985908;28;20022;-63
2021/01/12 05:21:48;;;;;;;5.55;3.63;;;19.40;43.40;;;;;;4987523;28;20101;-65
2021/01/12 05:24:18;;;;;;;6.40;5.18;;;19.40;43.40;;;;;;4987555;28;20157;-67
2021/01/12 05:26:43;;;;;;;7.95;5.32;;;19.30;43.60;;;;;;4986517;28;20145;-65
2021/01/12 05:29:09;;;;;;;11.15;6.07;;;19.40;43.60;;;;;;4986986;28;20118;-65
2021/01/12 05:31:35;;;;;;;7.05;5.55;;;19.40;43.70;;;;;;4987417;28;20492;-65
2021/01/12 05:34:08;;;;;;;6.43;5.20;;;19.30;43.70;;;;;;4970077;28;20022;-65
2021/01/12 05:36:46;;;;;;;9.95;6.30;;;19.30;43.80;;;;;;4986222;28;20018;-63
2021/01/12 05:39:12;;;;;;;6.18;4.32;;;19.30;44.00;;;;;;4986651;28;20065;-64
2021/01/12 05:41:37;;;;;;;7.15;4.90;;;19.30;43.90;;;;;;4969218;28;20662;-63
2021/01/12 05:44:03;;;;;;;7.03;5.00;;;19.30;44.00;;;;;;4986568;28;20084;-65
2021/01/12 05:46:28;;;;;;;8.73;5.85;;;19.20;44.10;;;;;;4985897;28;20030;-61
2021/01/12 05:48:54;;;;;;;6.15;4.78;;;19.20;44.10;;;;;;4968701;28;20045;-67
2021/01/12 05:51:19;;;;;;;8.43;5.60;;;19.20;44.10;;;;;;4969221;28;20037;-64
2021/01/12 05:53:44;;;;;;;6.68;4.82;;;19.20;44.20;;;;;;4986715;28;20674;-63
2021/01/12 05:56:11;;;;;;;6.18;4.53;;;19.20;44.20;;;;;;4985468;28;20053;-62
2021/01/12 05:58:37;;;;;;;5.18;4.43;;;19.20;44.20;;;;;;4969198;28;20029;-63
2021/01/12 06:01:02;;;;;;;11.13;4.22;;;19.20;44.20;;;;;;4971572;28;20022;-64
2021/01/12 06:03:32;;;;;;;7.28;4.85;;;19.20;44.30;;;;;;4990468;28;20483;-67
2021/01/12 06:05:58;;;;;;;4.53;4.03;;;19.20;44.30;;;;;;4987503;28;20035;-65
2021/01/12 06:08:24;;;;;;;5.97;3.60;;;19.20;44.30;;;;;;4973088;28;20073;-65
2021/01/12 06:10:49;;;;;;;4.80;3.65;;;19.20;44.30;;;;;;4989978;28;20030;-65
2021/01/12 06:13:18;;;;;;;4.97;3.40;;;19.20;44.20;;;;;;4972711;28;20022;-63
2021/01/12 06:15:47;;;;;;;6.78;4.00;;;19.10;44.20;;;;;;4990328;28;20700;-64
2021/01/12 06:18:16;;;;;;;9.30;4.47;;;19.10;44.30;;;;;;4990250;28;20034;-65
2021/01/12 06:20:56;;;;;;;17.27;7.50;;;19.10;44.30;;;;;;4973655;28;20031;-64
2021/01/12 06:23:40;;;;;;;25.30;11.45;;;19.10;44.40;;;;;;4974241;28;20030;-63
2021/01/12 06:26:06;;;;;;;35.60;16.45;;;19.00;44.50;;;;;;4975112;28;20064;-64
2021/01/12 06:28:31;;;;;;;37.60;16.52;;;19.00;44.60;;;;;;4973221;28;20105;-64
2021/01/12 06:30:57;;;;;;;48.85;20.52;;;19.00;44.70;;;;;;4990651;28;20022;-59
2021/01/12 06:33:22;;;;;;;49.08;22.70;;;19.00;44.70;;;;;;4972676;28;20081;-64
2021/01/12 06:35:50;;;;;;;61.72;23.13;;;18.90;44.70;;;;;;4989994;28;20102;-60
2021/01/12 06:38:20;;;;;;;51.75;23.20;;;18.90;44.80;;;;;;4973112;28;20482;-63
2021/01/12 06:40:49;;;;;;;52.70;23.80;;;18.90;44.80;;;;;;4973027;28;20152;-63
2021/01/12 06:43:15;;;;;;;62.33;27.17;;;18.80;44.90;;;;;;4989969;28;20034;-61
2021/01/12 06:45:40;;;;;;;56.33;24.85;;;18.80;44.90;;;;;;4973298;28;20030;-66
2021/01/12 06:48:06;;;;;;;60.90;28.02;;;18.80;44.90;;;;;;4972265;28;20038;-63
2021/01/12 06:50:31;;;;;;;59.67;26.27;;;18.70;44.90;;;;;;4972429;28;20630;-64
2021/01/12 06:52:57;;;;;;;59.50;25.35;;;18.80;45.00;;;;;;4990015;28;20026;-63
2021/01/12 06:55:22;;;;;;;59.55;26.73;;;18.70;45.00;;;;;;4989916;28;20019;-62
2021/01/12 06:57:49;;;;;;;55.25;24.48;;;18.70;45.00;;;;;;4989476;28;20026;-65
2021/01/12 07:00:15;;;;;;;56.58;25.80;;;18.70;45.60;;;;;;4989998;28;20036;-63
2021/01/12 07:02:41;;;;;;;54.78;24.50;;;18.70;45.00;;;;;;4989759;28;20034;-65
2021/01/12 07:05:09;;;;;;;55.72;26.10;;;18.70;45.00;;;;;;4988541;28;20023;-64
2021/01/12 07:07:38;;;;;;;55.40;25.10;;;18.70;45.00;;;;;;4989373;28;20023;-61
2021/01/12 07:10:20;;;;;;;52.13;23.08;;;18.70;45.00;;;;;;4989692;28;20363;-62
2021/01/12 07:12:45;;;;;;;47.78;22.67;;;18.70;45.00;;;;;;4972842;28;20031;-63
2021/01/12 07:15:15;;;;;;;49.63;22.55;;;18.70;45.00;;;;;;4989922;28;20022;-61
2021/01/12 07:17:46;;;;;;;44.20;21.45;;;18.70;45.00;;;;;;4989308;28;20030;-63
2021/01/12 07:20:24;;;;;;;43.33;21.60;;;18.60;44.90;;;;;;4989631;28;20030;-64
2021/01/12 07:22:59;;;;;;;42.55;18.52;;;18.70;45.00;;;;;;4989526;28;20130;-63
2021/01/12 07:25:44;;;;;;;48.42;21.98;;;18.70;44.90;;;;;;4989515;28;20030;-65
2021/01/12 07:28:16;;;;;;;41.00;20.00;;;18.70;44.90;;;;;;4989168;28;20022;-62
2021/01/12 07:30:43;;;;;;;44.05;20.05;;;18.70;44.90;;;;;;4989699;28;20692;-64
2021/01/12 07:33:15;;;;;;;39.67;18.25;;;18.70;44.90;;;;;;4989767;28;20089;-64
2021/01/12 07:35:41;;;;;;;34.17;16.90;;;18.70;45.00;;;;;;4989370;28;20018;-65
2021/01/12 07:38:06;;;;;;;43.00;18.88;;;18.70;44.90;;;;;;4988432;28;20689;-64
2021/01/12 07:40:33;;;;;;;36.00;17.52;;;18.70;44.90;;;;;;4988893;28;20038;-67
2021/01/12 07:43:00;;;;;;;34.22;15.02;;;18.70;44.90;;;;;;4988742;28;20029;-67
2021/01/12 07:45:27;;;;;;;38.90;17.20;;;18.70;44.80;;;;;;4971794;28;20053;-65
2021/01/12 07:47:54;;;;;;;36.83;17.30;;;18.70;44.90;;;;;;4988330;28;20030;-63
2021/01/12 07:50:20;;;;;;;36.33;17.25;;;18.70;44.90;;;;;;5010152;22;20049;-65
2021/01/12 07:52:45;;;;;;;30.98;15.75;;;18.70;44.90;;;;;;5008992;28;20112;-65
2021/01/12 07:55:11;;;;;;;33.35;15.95;;;18.70;44.80;;;;;;5027209;28;20105;-65
2021/01/12 07:57:37;;;;;;;34.13;14.68;;;18.80;44.90;;;;;;5028104;28;20033;-64
2021/01/12 08:00:10;;;;;;;25.10;12.95;;;18.80;44.90;;;;;;5028350;28;20017;-65
2021/01/12 08:02:36;;;;;;;31.85;15.02;;;18.80;44.90;;;;;;5027566;28;20785;-65
2021/01/12 08:05:04;;;;;;;27.77;13.73;;;18.80;44.90;;;;;;5009856;28;20033;-64
2021/01/12 08:07:29;;;;;;;23.35;12.90;;;18.90;45.00;;;;;;5027516;28;20113;-65
2021/01/12 08:09:55;;;;;;;26.23;13.10;;;18.90;44.80;;;;;;5027567;28;20135;-65
2021/01/12 08:12:21;;;;;;;26.77;12.73;;;18.90;44.90;;;;;;5027739;28;20025;-65
2021/01/12 08:14:47;;;;;;;20.92;11.57;;;18.90;44.90;;;;;;5028009;28;20021;-65
2021/01/12 08:17:21;;;;;;;23.95;11.45;;;19.00;44.70;;;;;;5010049;28;20121;-65
2021/01/12 08:19:46;;;;;;;23.13;11.98;;;19.00;44.70;;;;;;5027749;28;20029;-62
2021/01/12 08:22:16;;;;;;;23.50;11.95;;;19.00;44.70;;;;;;5027697;28;20078;-65
2021/01/12 08:24:45;;;;;;;20.48;10.57;;;19.10;44.60;;;;;;5027081;28;20096;-65
2021/01/12 08:27:11;;;;;;;19.50;10.57;;;19.20;44.60;;;;;;5027367;28;20028;-65
2021/01/12 08:29:37;;;;;;;20.30;10.10;;;19.20;44.60;;;;;;5027130;28;20068;-65
2021/01/12 08:32:04;;;;;;;22.15;10.23;;;19.30;44.50;;;;;;5027902;28;20041;-63
2021/01/12 08:34:32;;;;;;;19.15;9.90;;;19.30;44.30;;;;;;5009756;28;20026;-65
2021/01/12 08:36:57;;;;;;;17.65;9.75;;;19.30;44.30;;;;;;5009889;28;20541;-65
2021/01/12 08:39:23;;;;;;;14.23;9.00;;;19.40;44.30;;;;;;5010105;28;20029;-65
2021/01/12 08:41:49;;;;;;;16.27;8.77;;;19.50;44.30;;;;;;5009736;28;20033;-64
2021/01/12 08:44:14;;;;;;;17.65;9.05;;;19.50;44.20;;;;;;5009441;28;20033;-65
2021/01/12 08:46:40;;;;;;;13.85;8.00;;;19.60;44.20;;;;;;5026840;28;20021;-65
2021/01/12 08:49:06;;;;;;;14.15;8.15;;;19.60;43.90;;;;;;5009266;28;20120;-65
2021/01/12 08:51:32;;;;;;;15.05;7.75;;;19.60;43.90;;;;;;5026588;28;20025;-62
2021/01/12 08:53:58;;;;;;;14.63;7.57;;;19.60;43.80;;;;;;5026898;28;20024;-65
2021/01/12 08:56:23;;;;;;;14.65;7.65;;;19.60;43.80;;;;;;5009030;28;20022;-64
2021/01/12 08:58:49;;;;;;;13.52;7.22;;;19.70;43.90;;;;;;5026465;28;20056;-65
2021/01/12 09:01:14;;;;;;;12.25;6.63;;;19.70;43.80;;;;;;5026810;28;20048;-62
2021/01/12 09:03:42;;;;;;;11.15;5.78;;;19.70;43.70;;;;;;5009200;28;20030;-65
2021/01/12 09:06:18;;;;;;;10.23;6.05;;;19.70;43.70;;;;;;5026786;28;20022;-65
2021/01/12 09:08:43;;;;;;;10.80;5.65;;;19.70;43.70;;;;;;5027206;28;20583;-65
2021/01/12 09:11:09;;;;;;;9.45;5.72;;;19.70;43.70;;;;;;5026417;28;20096;-65
2021/01/12 09:13:34;;;;;;;12.57;6.15;;;19.70;43.60;;;;;;4992916;28;20480;-65
2021/01/12 09:16:00;;;;;;;7.82;4.75;;;19.60;43.70;;;;;;5026672;28;20139;-65
2021/01/12 09:18:26;;;;;;;9.77;5.60;;;19.60;43.70;;;;;;5009434;28;20026;-65
2021/01/12 09:20:59;;;;;;;9.82;5.60;;;19.60;43.70;;;;;;5026593;28;20025;-66
2021/01/12 09:23:25;;;;;;;10.68;5.60;;;19.50;43.80;;;;;;5026920;28;20033;-65
2021/01/12 09:25:54;;;;;;;10.68;5.40;;;19.50;43.80;;;;;;5026150;28;20033;-65
2021/01/12 09:28:24;;;;;;;6.63;4.47;;;19.40;43.80;;;;;;5026815;28;20103;-62
2021/01/12 09:30:51;;;;;;;9.18;4.45;;;19.40;43.80;;;;;;5026537;28;20476;-65
2021/01/12 09:33:23;;;;;;;7.38;4.40;;;19.40;43.90;;;;;;5026604;28;20029;-66
2021/01/12 09:36:11;;;;;;;9.27;4.85;;;19.40;43.90;;;;;;5026335;28;20024;-62
2021/01/12 09:38:41;;;;;;;6.95;4.13;;;19.40;44.00;;;;;;5026723;28;20033;-65
2021/01/12 09:41:06;;;;;;;7.40;3.90;;;19.40;44.00;;;;;;4992375;28;20066;-62
2021/01/12 09:43:32;;;;;;;9.48;4.45;;;19.30;43.90;;;;;;5026170;28;20100;-65
2021/01/12 09:45:57;;;;;;;8.32;4.53;;;19.30;43.90;;;;;;5026117;28;20481;-63
2021/01/12 09:48:23;;;;;;;6.60;3.63;;;19.30;44.00;;;;;;5026433;28;20041;-65
2021/01/12 09:50:49;;;;;;;6.43;3.60;;;19.20;43.90;;;;;;5029509;28;20037;-64
2021/01/12 09:53:15;;;;;;;6.63;3.35;;;19.20;43.90;;;;;;5027252;28;20022;-66
2021/01/12 09:55:41;;;;;;;4.13;2.75;;;19.20;43.90;;;;;;5026110;28;20032;-65
2021/01/12 09:58:06;;;;;;;6.65;3.95;;;19.20;44.00;;;;;;5026282;28;20037;-62
2021/01/12 10:00:32;;;;;;;4.75;3.00;;;19.20;44.00;;;;;;5026318;28;20037;-65
2021/01/12 10:02:57;;;;;;;6.90;3.20;;;19.10;44.00;;;;;;5026416;28;20030;-65
2021/01/12 10:05:23;;;;;;;5.07;3.25;;;19.20;44.00;;;;;;5026080;28;20056;-65
2021/01/12 10:07:48;;;;;;;5.63;3.35;;;19.10;44.00;;;;;;5026190;28;20060;-66
2021/01/12 10:10:14;;;;;;;4.40;2.63;;;19.10;44.00;;;;;;5026333;28;20029;-65
2021/01/12 10:12:39;;;;;;;6.05;2.97;;;19.10;44.10;;;;;;5026012;28;20482;-65
2021/01/12 10:15:05;;;;;;;4.13;2.90;;;19.00;44.00;;;;;;5025892;28;20589;-65
2021/01/12 10:17:31;;;;;;;4.97;2.75;;;19.00;44.00;;;;;;5025840;28;20035;-65
2021/01/12 10:19:56;;;;;;;3.60;2.42;;;19.00;44.00;;;;;;5026008;28;20356;-65
2021/01/12 10:22:22;;;;;;;4.20;2.40;;;19.00;44.20;;;;;;5026198;28;20021;-64
2021/01/12 10:24:47;;;;;;;4.03;2.35;;;19.00;44.20;;;;;;5008460;28;20484;-65
2021/01/12 10:27:13;;;;;;;3.10;2.20;;;19.00;44.30;;;;;;5025805;28;20033;-64
2021/01/12 10:29:38;;;;;;;3.28;2.28;;;19.00;44.30;;;;;;5026295;28;20049;-62
2021/01/12 10:32:04;;;;;;;2.97;2.20;;;19.00;44.30;;;;;;5025912;28;20025;-65
2021/01/12 10:34:29;;;;;;;4.07;2.53;;;18.90;44.30;;;;;;5026177;28;20018;-64
2021/01/12 10:36:55;;;;;;;4.55;2.38;;;18.90;44.30;;;;;;5026064;28;20021;-64
2021/01/12 10:39:20;;;;;;;4.20;2.38;;;18.90;44.40;;;;;;5026262;28;20083;-64
2021/01/12 10:41:46;;;;;;;4.72;2.22;;;18.90;44.40;;;;;;5025726;28;20026;-64
2021/01/12 10:44:12;;;;;;;3.28;2.03;;;18.90;44.50;;;;;;5026391;28;20022;-65
2021/01/12 10:46:37;;;;;;;2.78;1.90;;;18.90;44.50;;;;;;5027154;28;20605;-64
2021/01/12 10:49:03;;;;;;;3.78;2.45;;;18.90;44.50;;;;;;5011664;28;20029;-64
2021/01/12 10:51:29;;;;;;;3.53;2.10;;;18.90;44.50;;;;;;5029488;28;20128;-65
2021/01/12 10:53:54;;;;;;;2.80;1.80;;;18.90;44.50;;;;;;5029745;28;20121;-65
2021/01/12 10:56:20;;;;;;;2.72;1.80;;;18.90;44.50;;;;;;5011698;28;20025;-65
2021/01/12 10:58:45;;;;;;;3.45;2.22;;;18.90;44.60;;;;;;4995646;28;20496;-65
2021/01/12 11:01:15;;;;;;;3.30;1.77;;;18.90;44.60;;;;;;4995328;28;20034;-64
2021/01/12 11:03:40;;;;;;;3.95;2.00;;;18.90;44.70;;;;;;4996022;28;20400;-65
2021/01/12 11:06:06;;;;;;;3.20;1.90;;;18.90;44.70;;;;;;4995669;28;20060;-62
2021/01/12 11:08:31;;;;;;;2.08;1.67;;;18.90;44.70;;;;;;5011622;28;20049;-62
2021/01/12 11:10:57;;;;;;;2.95;1.65;;;18.90;44.70;;;;;;5011701;28;20021;-62
2021/01/12 11:13:23;;;;;;;2.00;1.50;;;18.90;44.70;;;;;;4979239;28;20108;-64
2021/01/12 11:15:48;;;;;;;2.42;1.60;;;18.90;44.70;;;;;;5011373;28;20080;-62
2021/01/12 11:18:14;;;;;;;3.50;1.60;;;18.90;44.70;;;;;;5028829;28;20025;-62
2021/01/12 11:20:41;;;;;;;2.15;1.60;;;18.90;44.60;;;;;;5028967;28;20060;-62
2021/01/12 11:23:06;;;;;;;2.45;1.52;;;18.90;44.80;;;;;;5028732;28;20021;-64
2021/01/12 11:25:32;;;;;;;2.50;1.38;;;18.90;44.70;;;;;;5029036;28;20036;-62
2021/01/12 11:27:57;;;;;;;3.08;1.55;;;18.90;44.60;;;;;;4995094;28;20029;-65
2021/01/12 11:30:23;;;;;;;2.20;1.48;;;18.90;44.80;;;;;;5018056;28;20029;-64
2021/01/12 11:32:48;;;;;;;2.33;1.52;;;18.90;44.70;;;;;;5046529;28;20049;-62
2021/01/12 11:35:15;;;;;;;1.80;1.35;;;18.90;45.40;;;;;;5046496;28;20029;-62
2021/01/12 11:37:40;;;;;;;1.77;1.10;;;18.90;44.70;;;;;;5046081;28;20029;-65
2021/01/12 11:40:08;;;;;;;1.83;1.58;;;18.90;44.70;;;;;;5046168;28;20037;-65
2021/01/12 11:42:33;;;;;;;1.75;1.20;;;18.90;44.70;;;;;;5046308;28;20040;-65
2021/01/12 11:44:59;;;;;;;2.00;1.08;;;18.90;44.60;;;;;;5046141;28;20025;-64
2021/01/12 11:47:24;;;;;;;1.77;1.17;;;18.90;44.70;;;;;;5046186;28;20380;-64
2021/01/12 11:49:50;;;;;;;2.20;1.33;;;18.90;44.60;;;;;;5047101;28;20070;-62
2021/01/12 11:52:15;;;;;;;1.52;1.00;;;18.90;44.70;;;;;;5046096;28;20044;-64
2021/01/12 11:54:41;;;;;;;2.08;1.10;;;19.00;44.70;;;;;;5046244;28;20028;-64
2021/01/12 11:57:09;;;;;;;1.73;1.15;;;19.00;44.70;;;;;;5045272;28;20056;-64
2021/01/12 11:59:35;;;;;;;1.13;0.90;;;19.00;44.70;;;;;;5027475;28;20070;-65
2021/01/12 12:02:00;;;;;;;1.30;1.05;;;19.00;44.60;;;;;;5028077;28;20025;-62
2021/01/12 12:04:26;;;;;;;0.93;0.80;;;19.00;44.60;;;;;;5046917;28;20025;-65
2021/01/12 12:07:00;;;;;;;1.50;1.00;;;19.00;44.60;;;;;;5027891;28;20427;-65
2021/01/12 12:09:26;;;;;;;1.85;1.10;;;19.00;44.60;;;;;;5028699;28;20033;-65
2021/01/12 12:11:51;;;;;;;1.38;0.98;;;19.00;44.60;;;;;;5028053;28;20025;-64
2021/01/12 12:14:17;;;;;;;1.63;1.10;;;19.00;44.50;;;;;;5028245;28;20563;-64
2021/01/12 12:16:46;;;;;;;0.93;0.77;;;19.00;44.50;;;;;;5028089;28;20605;-64
2021/01/12 12:19:13;;;;;;;1.38;1.00;;;19.00;44.50;;;;;;5028940;28;20036;-65
2021/01/12 12:21:46;;;;;;;1.20;0.80;;;19.00;44.50;;;;;;5027783;28;20060;-61
2021/01/12 12:24:13;;;;;;;1.73;1.05;;;19.00;44.50;;;;;;5046188;28;20060;-64
2021/01/12 12:26:38;;;;;;;1.42;1.23;;;19.00;44.40;;;;;;5045538;28;20487;-63
2021/01/12 12:29:04;;;;;;;1.40;0.85;;;19.00;44.50;;;;;;5045064;28;20033;-64
2021/01/12 12:31:29;;;;;;;1.17;0.90;;;19.00;44.40;;;;;;5045865;28;20377;-64
2021/01/12 12:33:55;;;;;;;0.90;0.65;;;19.00;44.40;;;;;;5028273;28;20029;-65
2021/01/12 12:36:20;;;;;;;1.98;1.08;;;19.00;44.30;;;;;;5045155;28;20025;-64
2021/01/12 12:38:46;;;;;;;0.65;0.50;;;19.00;44.30;;;;;;5045395;28;20029;-65
2021/01/12 12:41:13;;;;;;;1.10;0.65;;;19.00;44.30;;;;;;5044409;28;20029;-62